Time;durP1;ratioP1;P1;durP2;ratioP2;P2;SDS_P1;SDS_P2;PMS_P1;PMS_P2;Temp;Humidity;BMP_temperature;BMP_pressure;BME280_temperature;BME280_humidity;BME280_pressure;Samples;Min_cycle;Max_cycle;Signal;HPM_P1;HPM_P2
2022/04/11 00:01:57;;;;;;;8.70;6.15;;;4.30;99.90;;;3.76;100.00;100964.28;5008109;28;20046;-75
2022/04/11 00:04:24;;;;;;;7.55;5.55;;;4.30;99.90;;;3.70;100.00;100969.38;5006672;28;20046;-76
2022/04/11 00:06:51;;;;;;;8.93;5.38;;;4.30;99.90;;;3.71;100.00;100970.28;5008132;28;20045;-75
2022/04/11 00:09:19;;;;;;;6.57;5.53;;;4.70;99.90;;;3.59;100.00;100969.25;5008006;28;20052;-75
2022/04/11 00:11:46;;;;;;;7.20;6.28;;;4.70;99.90;;;3.55;100.00;100964.84;5009481;28;20494;-76
2022/04/11 00:14:14;;;;;;;6.72;5.05;;;4.20;99.90;;;3.58;100.00;100966.59;5006977;28;20129;-76
2022/04/11 00:16:41;;;;;;;9.50;7.03;;;4.20;99.90;;;3.52;100.00;100962.22;5007675;28;20038;-76
2022/04/11 00:19:12;;;;;;;10.27;5.97;;;4.90;99.90;;;3.54;100.00;100963.09;5007025;28;20419;-76
2022/04/11 00:21:39;;;;;;;7.93;5.75;;;4.20;99.90;;;3.44;100.00;100959.50;5007729;28;20045;-75
2022/04/11 00:24:06;;;;;;;7.55;6.18;;;4.10;99.90;;;3.34;100.00;100961.06;4987544;28;20373;-76
2022/04/11 00:26:33;;;;;;;7.15;6.07;;;4.00;99.90;;;3.41;100.00;100959.41;4989323;28;20526;-76
2022/04/11 00:29:01;;;;;;;7.30;5.80;;;5.00;99.90;;;3.33;100.00;100961.06;5015599;28;20038;-76
2022/04/11 00:31:29;;;;;;;6.68;5.25;;;4.10;99.90;;;3.28;100.00;100954.88;5023729;28;20050;-76
2022/04/11 00:33:57;;;;;;;7.55;5.57;;;4.00;99.90;;;3.30;100.00;100958.41;5006963;28;20053;-75
2022/04/11 00:36:24;;;;;;;6.10;5.15;;;3.90;99.90;;;3.28;100.00;100945.38;5023914;28;20061;-76
2022/04/11 00:38:51;;;;;;;7.88;5.65;;;3.90;99.90;;;3.35;100.00;100949.78;5007849;28;20157;-76
2022/04/11 00:41:18;;;;;;;6.78;5.40;;;4.00;99.90;;;3.41;100.00;100949.00;5008325;28;20048;-76
2022/04/11 00:43:45;;;;;;;7.72;5.80;;;3.90;99.90;;;3.44;100.00;100941.28;5008886;28;20133;-76
2022/04/11 00:46:13;;;;;;;7.25;5.97;;;3.90;99.90;;;3.52;100.00;100944.84;5008445;28;20042;-75
2022/04/11 00:48:40;;;;;;;9.25;6.63;;;3.90;99.90;;;3.49;100.00;100943.91;5007761;28;20050;-77
2022/04/11 00:51:20;;;;;;;12.57;7.28;;;4.00;99.90;;;3.54;100.00;100942.28;5007766;28;20050;-76
2022/04/11 00:53:49;;;;;;;7.80;5.90;;;4.00;99.90;;;3.55;100.00;100936.22;4996425;28;20054;-75
2022/04/11 00:56:18;;;;;;;8.83;6.17;;;4.00;99.90;;;3.60;100.00;100929.34;5007087;28;20076;-76
2022/04/11 00:58:47;;;;;;;10.20;7.30;;;4.60;99.90;;;3.54;100.00;100937.09;5007154;28;20038;-77
2022/04/11 01:01:15;;;;;;;9.05;6.15;;;4.10;99.90;;;3.66;100.00;100928.56;4990645;28;20038;-75
2022/04/11 01:03:43;;;;;;;8.40;6.47;;;4.10;99.90;;;3.66;100.00;100926.81;5006152;28;20467;-76
2022/04/11 01:06:11;;;;;;;9.45;5.82;;;4.10;99.90;;;3.72;100.00;100931.22;4990376;28;20046;-76
2022/04/11 01:08:38;;;;;;;8.18;6.00;;;4.10;99.90;;;3.76;100.00;100929.56;5008099;28;20038;-76
2022/04/11 01:11:06;;;;;;;7.40;6.47;;;5.40;99.90;;;3.83;100.00;100932.25;5006993;28;20104;-76
2022/04/11 01:13:33;;;;;;;8.25;6.55;;;4.20;99.90;;;3.83;100.00;100931.41;4989795;28;20136;-76
2022/04/11 01:16:05;;;;;;;10.07;6.60;;;4.30;99.90;;;3.85;100.00;100929.69;4990569;28;20503;-76
2022/04/11 01:18:38;;;;;;;9.10;7.18;;;4.30;99.90;;;3.81;100.00;100930.47;5006749;28;20046;-77
2022/04/11 01:21:11;;;;;;;7.53;6.10;;;4.30;99.90;;;3.88;100.00;100931.44;5007450;28;20574;-76
2022/04/11 01:23:38;;;;;;;8.20;6.75;;;5.40;99.90;;;3.88;100.00;100932.31;5021699;28;20092;-75
2022/04/11 01:26:06;;;;;;;9.32;7.25;;;4.30;99.90;;;3.88;100.00;100919.31;5006759;28;20046;-76
2022/04/11 01:28:38;;;;;;;9.07;7.18;;;4.30;99.90;;;3.92;100.00;100926.28;5006569;28;20092;-76
2022/04/11 01:31:06;;;;;;;11.77;6.45;;;4.40;99.90;;;3.93;100.00;100925.44;5023037;28;20045;-76
2022/04/11 01:33:34;;;;;;;11.75;6.57;;;5.50;99.90;;;3.89;100.00;100922.75;5005983;28;20057;-76
2022/04/11 01:36:04;;;;;;;;;;;5.10;99.90;;;3.98;100.00;100917.69;5007795;28;20064;-75
2022/04/11 01:38:31;;;;;;;9.73;6.57;;;4.40;99.90;;;3.94;100.00;100919.38;5005895;28;19965;-75
2022/04/11 01:40:58;;;;;;;8.98;7.72;;;4.40;99.90;;;3.96;100.00;100914.19;5022512;28;20091;-75
2022/04/11 01:43:26;;;;;;;7.40;6.60;;;4.40;99.90;;;3.92;100.00;100918.47;5005573;28;20080;-76
2022/04/11 01:45:55;;;;;;;7.30;6.40;;;4.50;99.90;;;3.92;100.00;100915.00;5006466;28;20050;-76
2022/04/11 01:48:34;;;;;;;9.93;6.88;;;4.40;99.90;;;3.89;100.00;100914.94;5007565;28;20061;-76
2022/04/11 01:51:02;;;;;;;7.90;6.82;;;5.60;99.90;;;3.92;100.00;100913.28;5006307;28;20049;-76
2022/04/11 01:53:29;;;;;;;8.15;7.13;;;3.90;99.90;;;3.94;100.00;100903.75;5005465;28;20056;-76
2022/04/11 01:55:56;;;;;;;8.57;7.32;;;4.50;99.90;;;3.89;100.00;100902.81;5006730;28;20140;-76
2022/04/11 01:58:23;;;;;;;9.38;7.78;;;4.40;99.90;;;3.93;100.00;100902.00;5006490;28;20742;-76
2022/04/11 02:00:50;;;;;;;9.15;7.95;;;4.40;99.90;;;3.96;100.00;100895.97;5006177;28;20534;-75
2022/04/11 02:03:17;;;;;;;9.52;6.82;;;4.40;99.90;;;3.87;100.00;100886.31;4988314;28;20042;-75
2022/04/11 02:05:44;;;;;;;10.10;7.68;;;4.30;99.90;;;3.96;100.00;100891.59;5007354;28;20041;-75
2022/04/11 02:08:12;;;;;;;10.45;7.75;;;4.40;99.90;;;3.93;100.00;100893.31;5005973;28;20073;-76
2022/04/11 02:10:40;;;;;;;12.93;8.02;;;4.40;99.90;;;3.98;100.00;100891.66;5004855;28;20050;-76
2022/04/11 02:13:09;;;;;;;9.82;7.15;;;4.50;99.90;;;3.96;100.00;100882.94;4989470;28;20046;-76
2022/04/11 02:15:38;;;;;;;8.85;7.53;;;4.30;99.90;;;3.98;100.00;100878.63;5005533;28;20141;-75
2022/04/11 02:18:06;;;;;;;10.13;7.35;;;4.40;99.90;;;3.97;100.00;100880.34;5021291;28;20049;-75
2022/04/11 02:20:34;;;;;;;9.63;8.15;;;4.50;99.90;;;3.97;100.00;100869.06;5005979;28;20046;-76
2022/04/11 02:23:01;;;;;;;10.68;7.45;;;4.40;99.90;;;3.94;100.00;100871.63;4986046;28;20050;-74
2022/04/11 02:25:32;;;;;;;10.38;8.25;;;4.40;99.90;;;4.02;100.00;100866.53;4987492;28;20038;-74
2022/04/11 02:28:01;;;;;;;8.82;7.90;;;4.50;99.90;;;3.97;100.00;100858.66;5001991;28;20050;-76
2022/04/11 02:30:29;;;;;;;12.35;8.98;;;6.60;99.90;;;3.98;100.00;100860.41;5002428;28;20100;-75
2022/04/11 02:32:56;;;;;;;13.55;8.57;;;5.00;99.90;;;3.99;100.00;100863.88;4987014;28;20133;-76
2022/04/11 02:35:24;;;;;;;12.98;8.05;;;4.40;99.90;;;3.96;100.00;100867.31;5001846;28;20550;-76
2022/04/11 02:37:52;;;;;;;9.25;7.45;;;4.50;99.90;;;3.97;100.00;100862.13;5002089;28;20077;-76
2022/04/11 02:40:20;;;;;;;10.05;8.10;;;5.30;99.90;;;4.01;100.00;100867.38;5002313;28;20050;-76
2022/04/11 02:43:05;;;;;;;12.73;8.60;;;4.50;99.90;;;3.98;100.00;100857.78;4999330;28;20046;-75
2022/04/11 02:45:34;;;;;;;9.27;7.55;;;4.50;99.90;;;4.04;100.00;100862.19;5002410;28;20475;-75
2022/04/11 02:48:05;;;;;;;12.38;8.10;;;5.30;99.90;;;4.09;100.00;100857.91;5001642;28;20049;-75
2022/04/11 02:50:36;;;;;;;10.07;8.48;;;4.50;99.90;;;4.04;100.00;100855.25;5002398;28;20562;-75
2022/04/11 02:53:07;;;;;;;8.52;7.63;;;4.50;99.90;;;4.04;100.00;100857.84;4991375;28;20042;-76
2022/04/11 02:55:34;;;;;;;9.80;6.85;;;4.50;99.90;;;4.07;100.00;100859.63;5005844;28;20597;-76
2022/04/11 02:58:02;;;;;;;10.02;8.25;;;4.50;99.90;;;4.06;100.00;100861.38;5005543;28;20050;-76
2022/04/11 03:00:29;;;;;;;12.25;8.30;;;4.50;99.90;;;4.09;100.00;100853.59;4989594;28;20050;-76
2022/04/11 03:02:58;;;;;;;9.98;8.32;;;4.50;99.90;;;4.11;100.00;100846.66;5004627;28;20133;-77
2022/04/11 03:05:30;;;;;;;11.63;9.20;;;4.50;99.90;;;4.10;100.00;100852.72;4990701;28;20053;-76
2022/04/11 03:07:58;;;;;;;11.13;8.45;;;4.50;99.90;;;4.09;100.00;100843.16;5021363;28;20077;-76
2022/04/11 03:10:25;;;;;;;12.30;8.57;;;4.50;99.90;;;4.12;100.00;100844.91;5005399;28;20050;-75
2022/04/11 03:12:58;;;;;;;10.30;8.30;;;4.60;99.90;;;4.07;100.00;100841.38;5005461;28;20077;-75
2022/04/11 03:15:26;;;;;;;8.73;7.80;;;4.60;99.90;;;4.03;100.00;100843.09;5021394;28;20511;-76
2022/04/11 03:17:52;;;;;;;12.57;8.75;;;4.60;99.90;;;4.07;100.00;100833.56;5004657;28;20061;-75
2022/04/11 03:20:20;;;;;;;11.38;7.90;;;4.60;99.90;;;4.09;100.00;100839.66;5005722;28;20057;-76
2022/04/11 03:22:48;;;;;;;10.63;7.35;;;4.50;99.90;;;4.06;100.00;100837.03;5020551;28;20052;-75
2022/04/11 03:25:16;;;;;;;10.00;8.75;;;4.70;99.90;;;4.03;100.00;100826.59;5005230;28;20057;-76
2022/04/11 03:27:43;;;;;;;8.02;7.22;;;5.60;99.90;;;4.07;100.00;100831.88;5021647;28;20042;-77
2022/04/11 03:30:11;;;;;;;10.48;7.75;;;4.50;99.90;;;4.08;100.00;100833.59;5024481;28;20056;-76
2022/04/11 03:32:40;;;;;;;8.10;7.30;;;4.50;99.90;;;4.05;100.00;100833.53;5004860;28;20096;-75
2022/04/11 03:35:10;;;;;;;9.05;7.72;;;4.50;99.90;;;4.06;100.00;100839.66;5004763;28;20046;-75
2022/04/11 03:37:38;;;;;;;11.10;8.02;;;4.50;99.90;;;3.99;100.00;100832.63;5004780;28;20657;-75
2022/04/11 03:40:16;;;;;;;13.20;7.75;;;4.50;99.90;;;3.99;100.00;100827.44;5004933;28;20104;-76
2022/04/11 03:42:44;;;;;;;10.48;7.97;;;4.40;99.90;;;3.98;100.00;100821.34;5004438;28;20427;-76
2022/04/11 03:45:11;;;;;;;10.48;6.95;;;4.50;99.90;;;3.97;100.00;100822.19;5004949;28;20042;-76
2022/04/11 03:47:41;;;;;;;11.15;7.45;;;4.50;99.90;;;3.96;100.00;100818.69;5004781;28;20100;-77
2022/04/11 03:50:11;;;;;;;10.43;7.55;;;4.40;99.90;;;3.98;100.00;100808.31;4988767;28;20065;-76
2022/04/11 03:52:40;;;;;;;12.20;7.95;;;4.40;99.90;;;3.91;100.00;100803.91;5007015;28;20054;-77
2022/04/11 03:55:10;;;;;;;10.55;6.95;;;4.40;99.90;;;4.00;100.00;100804.00;5008198;28;20060;-75
2022/04/11 03:57:41;;;;;;;9.68;7.38;;;4.40;99.90;;;3.94;100.00;100810.00;5008433;28;20431;-75
2022/04/11 04:00:10;;;;;;;9.00;6.95;;;4.40;99.90;;;3.93;100.00;100804.81;5009572;28;20899;-75
2022/04/11 04:03:09;;;;;;;9.63;7.32;;;4.40;99.90;;;3.94;100.00;100809.16;5008330;28;20371;-76
2022/04/11 04:05:46;;;;;;;7.00;6.13;;;4.40;99.90;;;3.89;100.00;100806.50;5008679;28;20092;-76
2022/04/11 04:08:17;;;;;;;11.15;7.90;;;4.30;99.90;;;3.87;100.00;100818.63;5008547;28;20773;-76
2022/04/11 04:10:55;;;;;;;12.77;6.95;;;6.40;99.90;;;3.80;100.00;100816.78;5020787;28;20114;-74
2022/04/11 04:13:22;;;;;;;9.68;7.35;;;4.30;99.90;;;3.79;100.00;100808.13;5024035;28;20046;-76
2022/04/11 04:15:50;;;;;;;8.52;7.57;;;4.30;99.90;;;3.69;100.00;100804.56;5008997;28;20050;-74
2022/04/11 04:18:18;;;;;;;8.77;6.35;;;4.30;99.90;;;3.71;100.00;100798.50;5013974;28;20054;-79
2022/04/11 04:20:45;;;;;;;8.30;6.88;;;4.20;99.90;;;3.66;100.00;100804.50;5008646;28;20058;-75
2022/04/11 04:23:16;;;;;;;10.48;7.88;;;4.20;99.90;;;3.65;100.00;100813.16;5020954;28;20046;-76
2022/04/11 04:25:43;;;;;;;8.73;6.70;;;4.20;99.90;;;3.67;100.00;100810.59;5004649;28;20082;-75
2022/04/11 04:28:10;;;;;;;9.20;7.13;;;5.60;99.90;;;3.62;100.00;100814.88;5004850;28;20074;-77
2022/04/11 04:30:39;;;;;;;8.45;7.55;;;4.10;99.90;;;3.60;100.00;100806.19;5005339;28;20050;-76
2022/04/11 04:33:09;;;;;;;10.70;7.60;;;4.10;99.90;;;3.57;100.00;100806.13;4990084;28;20048;-76
2022/04/11 04:35:36;;;;;;;12.15;8.38;;;5.00;99.90;;;3.53;100.00;100805.22;4990337;28;20066;-76
2022/04/11 04:38:08;;;;;;;7.20;6.50;;;4.00;99.90;;;3.50;100.00;100805.16;5007452;28;20046;-75
2022/04/11 04:40:44;;;;;;;11.18;8.57;;;4.00;99.90;;;3.47;100.00;100802.53;5018392;28;20085;-75
2022/04/11 04:43:14;;;;;;;12.35;7.00;;;4.00;99.90;;;3.44;100.00;100803.41;5006961;28;20057;-75
2022/04/11 04:45:42;;;;;;;10.65;8.88;;;5.50;99.90;;;3.43;100.00;100803.38;4998306;28;20496;-77
2022/04/11 04:48:21;;;;;;;10.07;7.40;;;3.90;99.90;;;3.40;100.00;100798.97;4980094;28;20065;-77
2022/04/11 04:50:48;;;;;;;12.43;8.10;;;3.90;99.90;;;3.39;100.00;100792.94;5005415;28;20042;-77
2022/04/11 04:53:17;;;;;;;13.85;7.90;;;3.90;99.90;;;3.37;100.00;100794.63;5020865;28;20104;-77
2022/04/11 04:55:47;;;;;;;9.70;8.20;;;5.10;99.90;;;3.32;100.00;100792.84;4992047;28;20045;-77
2022/04/11 04:58:14;;;;;;;11.38;7.88;;;4.00;99.90;;;3.34;100.00;100789.38;5007188;28;20528;-75
2022/04/11 05:00:43;;;;;;;8.18;6.75;;;3.90;99.90;;;3.27;100.00;100782.38;5021051;28;20042;-78
2022/04/11 05:03:15;;;;;;;9.35;7.38;;;5.90;99.90;;;3.27;100.00;100797.97;5006760;28;20053;-76
2022/04/11 05:05:42;;;;;;;9.90;7.97;;;3.90;99.90;;;3.26;100.00;100791.03;4996845;28;20455;-76
2022/04/11 05:08:09;;;;;;;12.57;8.10;;;3.80;99.90;;;3.32;100.00;100791.09;5006345;28;20042;-75
2022/04/11 05:10:38;;;;;;;10.38;7.50;;;3.80;99.90;;;3.28;100.00;100797.13;4991152;28;20135;-77
2022/04/11 05:13:08;;;;;;;10.05;7.82;;;3.80;99.90;;;3.29;100.00;100791.06;5006482;28;20804;-77
2022/04/11 05:15:35;;;;;;;15.20;8.18;;;3.70;99.90;;;3.28;100.00;100791.03;5007531;28;20045;-76
2022/04/11 05:18:09;;;;;;;10.60;8.18;;;5.90;99.90;;;3.28;100.00;100796.22;5008159;28;20765;-76
2022/04/11 05:20:40;;;;;;;11.97;8.27;;;3.80;99.90;;;3.29;100.00;100790.19;5024480;28;20060;-77
2022/04/11 05:23:07;;;;;;;9.65;7.30;;;3.80;99.90;;;3.26;100.00;100791.03;4990939;28;20045;-75
2022/04/11 05:25:37;;;;;;;9.65;7.60;;;5.40;99.90;;;3.31;100.00;100791.09;5007060;28;20612;-76
2022/04/11 05:28:04;;;;;;;10.13;7.70;;;3.80;99.90;;;3.29;100.00;100795.41;4990646;28;20050;-76
2022/04/11 05:30:35;;;;;;;9.90;7.40;;;3.80;99.90;;;3.29;100.00;100792.78;4990434;28;20049;-76
2022/04/11 05:33:07;;;;;;;11.60;7.60;;;4.00;99.90;;;3.27;100.00;100797.97;5023490;28;20061;-76
2022/04/11 05:35:34;;;;;;;9.23;6.72;;;3.80;99.90;;;3.33;100.00;100800.63;5007049;28;20530;-77
2022/04/11 05:38:09;;;;;;;11.68;7.05;;;3.90;99.90;;;3.30;100.00;100795.41;5024537;28;20074;-77
2022/04/11 05:40:38;;;;;;;8.48;7.05;;;3.80;99.90;;;3.33;100.00;100790.22;5022232;28;20431;-77
2022/04/11 05:43:13;;;;;;;8.20;6.50;;;4.90;99.90;;;3.36;100.00;100797.22;5006847;28;20103;-75
2022/04/11 05:45:41;;;;;;;9.02;7.00;;;3.80;99.90;;;3.40;100.00;100805.06;5022737;28;20092;-76
2022/04/11 05:48:10;;;;;;;8.18;6.70;;;3.80;99.90;;;3.41;100.00;100805.94;5007048;28;20049;-77
2022/04/11 05:50:38;;;;;;;8.35;7.55;;;3.90;99.90;;;3.44;100.00;100810.31;5022647;28;20038;-77
2022/04/11 05:53:05;;;;;;;9.13;6.63;;;4.00;99.90;;;3.51;100.00;100810.41;5022429;28;20053;-77
2022/04/11 05:55:32;;;;;;;9.60;6.75;;;5.10;99.90;;;3.52;100.00;100804.34;5022813;28;20066;-76
2022/04/11 05:58:00;;;;;;;10.23;7.65;;;4.00;99.90;;;3.58;100.00;100806.16;5005715;28;20454;-75
2022/04/11 06:00:28;;;;;;;12.00;7.47;;;5.30;99.90;;;3.69;100.00;100804.56;5007913;28;20136;-75
2022/04/11 06:02:55;;;;;;;9.05;7.22;;;4.10;99.90;;;3.79;100.00;100807.25;5005983;28;20077;-75
2022/04/11 06:05:23;;;;;;;7.93;6.22;;;4.20;99.90;;;3.84;100.00;100805.59;5006782;28;20137;-75
2022/04/11 06:07:50;;;;;;;12.18;7.95;;;4.60;99.90;;;3.82;100.00;100805.56;4989838;28;20050;-77
2022/04/11 06:10:19;;;;;;;9.38;6.65;;;4.20;99.90;;;3.96;100.00;100807.44;5022289;28;20511;-75
2022/04/11 06:12:47;;;;;;;9.68;6.93;;;4.20;99.90;;;3.97;100.00;100806.56;5005513;28;20049;-76
2022/04/11 06:15:17;;;;;;;10.15;7.28;;;4.30;99.90;;;4.11;100.00;100814.50;5022465;28;20077;-76
2022/04/11 06:17:48;;;;;;;8.20;6.07;;;4.30;99.90;;;4.15;100.00;100810.22;5022895;28;20088;-76
2022/04/11 06:20:16;;;;;;;9.00;6.85;;;4.70;99.90;;;4.14;100.00;100811.97;5006052;28;20046;-76
2022/04/11 06:22:46;;;;;;;8.93;7.05;;;4.40;99.90;;;4.30;100.00;100812.97;4989456;28;20998;-75
2022/04/11 06:25:13;;;;;;;7.95;6.85;;;4.50;99.90;;;4.33;100.00;100801.72;4999546;28;20678;-76
2022/04/11 06:27:40;;;;;;;7.45;6.38;;;4.90;99.90;;;4.32;100.00;100811.25;4986787;28;20045;-75
2022/04/11 06:30:08;;;;;;;8.27;6.43;;;4.60;99.90;;;4.36;100.00;100809.53;5002349;28;20038;-76
2022/04/11 06:32:39;;;;;;;7.95;6.47;;;4.60;99.90;;;4.42;100.00;100806.97;4987341;28;20046;-77
2022/04/11 06:35:07;;;;;;;7.43;5.82;;;4.90;99.90;;;4.45;100.00;100807.03;4970828;28;20081;-76
2022/04/11 06:37:34;;;;;;;8.63;6.15;;;4.70;99.90;;;4.53;100.00;100807.09;4971376;28;20046;-76
2022/04/11 06:40:03;;;;;;;6.75;5.43;;;4.80;99.90;;;4.60;100.00;100805.38;4971585;28;20058;-76
2022/04/11 06:42:31;;;;;;;7.28;6.07;;;4.80;99.90;;;4.67;100.00;100804.56;4987770;28;20089;-75
2022/04/11 06:45:01;;;;;;;6.97;5.38;;;4.90;99.90;;;4.80;100.00;100806.41;4970952;28;20074;-75
2022/04/11 06:47:31;;;;;;;8.73;6.50;;;5.70;99.90;;;4.91;100.00;100801.25;5003533;28;20100;-75
2022/04/11 06:49:59;;;;;;;9.07;5.95;;;5.00;99.90;;;4.92;100.00;100807.38;4986840;28;20097;-77
2022/04/11 06:52:26;;;;;;;12.25;5.63;;;5.10;99.90;;;5.03;100.00;100802.22;4989539;28;20630;-75
2022/04/11 06:54:54;;;;;;;7.88;5.45;;;6.40;99.90;;;5.09;100.00;100807.44;5008617;28;20778;-76
2022/04/11 06:57:21;;;;;;;6.20;4.97;;;5.30;99.90;;;5.14;100.00;100805.72;5010210;28;20527;-77
2022/04/11 06:59:48;;;;;;;8.88;6.13;;;5.30;99.90;;;5.21;100.00;100806.63;5009930;28;20048;-75
2022/04/11 07:02:15;;;;;;;11.48;5.15;;;5.40;99.90;;;5.32;100.00;100802.34;5009108;28;20054;-76
2022/04/11 07:04:43;;;;;;;7.97;5.03;;;6.00;99.90;;;5.45;100.00;100805.03;5011723;28;20046;-77
2022/04/11 07:07:10;;;;;;;7.05;5.68;;;5.60;99.90;;;5.49;100.00;100809.38;5013876;28;20111;-77
2022/04/11 07:09:38;;;;;;;6.65;4.72;;;5.60;99.90;;;5.53;100.00;100803.28;5010379;28;20050;-77
2022/04/11 07:12:07;;;;;;;6.55;5.88;;;5.70;99.80;;;5.61;100.00;100799.00;5015080;28;20057;-77
2022/04/11 07:14:35;;;;;;;9.75;5.32;;;5.70;99.80;;;5.68;100.00;100802.50;5012658;28;20107;-77
2022/04/11 07:17:06;;;;;;;9.82;5.78;;;5.70;99.70;;;5.81;100.00;100803.41;5011734;28;20079;-77
2022/04/11 07:19:33;;;;;;;8.57;4.97;;;5.90;99.80;;;5.87;100.00;100800.81;5011103;28;20144;-77
2022/04/11 07:22:00;;;;;;;5.65;4.70;;;6.00;99.60;;;5.98;100.00;100798.22;4995159;28;20145;-76
2022/04/11 07:24:27;;;;;;;8.65;4.40;;;6.00;99.50;;;6.04;100.00;100800.00;5011758;28;20427;-75
2022/04/11 07:26:54;;;;;;;6.82;4.65;;;6.10;99.40;;;6.16;100.00;100789.53;5011270;28;20042;-76
2022/04/11 07:29:21;;;;;;;8.23;5.22;;;6.20;99.40;;;6.27;100.00;100791.31;5012014;28;20052;-76
2022/04/11 07:31:48;;;;;;;7.40;5.03;;;7.60;99.60;;;6.35;100.00;100787.81;5012393;28;20041;-75
2022/04/11 07:34:15;;;;;;;6.47;5.28;;;6.40;99.20;;;6.45;100.00;100791.31;4994863;28;20057;-77
2022/04/11 07:36:43;;;;;;;5.85;4.85;;;8.00;99.30;;;6.53;100.00;100788.69;5027601;28;20104;-75
2022/04/11 07:39:10;;;;;;;5.93;4.45;;;6.60;99.10;;;6.63;100.00;100785.22;5013990;28;20050;-75
2022/04/11 07:41:37;;;;;;;7.15;4.70;;;6.60;98.80;;;6.74;100.00;100787.81;5014661;28;20038;-75
2022/04/11 07:44:05;;;;;;;8.55;5.30;;;6.70;98.80;;;6.86;100.00;100792.13;5012198;28;20070;-77
2022/04/11 07:46:32;;;;;;;7.60;4.90;;;6.90;98.70;;;6.99;100.00;100792.13;5010004;28;20116;-77
2022/04/11 07:49:00;;;;;;;6.53;4.57;;;6.90;98.60;;;7.07;100.00;100792.97;5011683;28;20042;-77
2022/04/11 07:51:29;;;;;;;6.88;5.35;;;7.00;98.50;;;7.17;100.00;100796.44;5011557;28;20038;-78
2022/04/11 07:53:56;;;;;;;8.27;4.38;;;7.10;98.50;;;7.26;100.00;100795.53;4995416;28;20446;-77
2022/04/11 07:56:24;;;;;;;6.32;4.35;;;7.20;98.40;;;7.35;100.00;100791.13;5012151;28;20046;-77
2022/04/11 07:58:51;;;;;;;7.13;4.68;;;7.30;98.20;;;7.48;100.00;100791.09;5012082;28;20046;-78
2022/04/11 08:01:23;;;;;;;7.50;4.35;;;7.40;98.20;;;7.54;100.00;100788.44;5012112;28;20144;-79
2022/04/11 08:03:51;;;;;;;7.57;4.35;;;7.50;98.10;;;7.71;100.00;100787.47;5013439;28;20559;-78
2022/04/11 08:06:18;;;;;;;6.88;4.55;;;7.60;98.00;;;7.86;100.00;100783.91;4997225;28;20096;-79
2022/04/11 08:08:46;;;;;;;7.57;4.35;;;7.70;97.70;;;7.96;100.00;100777.75;5015467;28;20485;-79
2022/04/11 08:11:15;;;;;;;5.72;4.03;;;7.80;97.50;;;8.03;100.00;100774.19;5016547;28;20129;-80
2022/04/11 08:13:47;;;;;;;5.00;4.00;;;7.90;96.90;;;8.05;100.00;100764.56;5016448;28;20490;-79
2022/04/11 08:16:14;;;;;;;9.18;4.68;;;10.00;97.20;;;8.16;100.00;100771.50;5001721;28;20030;-79
2022/04/11 08:18:42;;;;;;;6.03;4.00;;;8.30;96.50;;;8.23;100.00;100760.06;5022238;28;20751;-80
2022/04/11 08:21:09;;;;;;;4.85;4.13;;;8.20;96.50;;;8.35;100.00;100764.31;5014143;28;20526;-80
2022/04/11 08:23:37;;;;;;;6.32;4.32;;;8.30;96.30;;;8.41;100.00;100764.28;5013800;28;20105;-80
2022/04/11 08:26:05;;;;;;;5.78;3.97;;;9.70;96.60;;;8.40;100.00;100745.94;5014919;28;20134;-81
2022/04/11 08:28:32;;;;;;;7.43;5.13;;;8.40;96.00;;;8.54;100.00;100754.56;5000622;28;20041;-81
2022/04/11 08:30:59;;;;;;;8.00;4.13;;;8.50;95.90;;;8.63;100.00;100757.13;4983025;28;20054;-79
2022/04/11 08:33:27;;;;;;;8.48;4.63;;;8.60;95.80;;;8.74;100.00;100751.75;5014462;28;20062;-80
2022/04/11 08:35:54;;;;;;;5.63;4.15;;;8.70;95.90;;;8.86;99.01;100760.41;5015849;28;20128;-79
2022/04/11 08:38:22;;;;;;;6.07;4.13;;;8.70;95.80;;;8.99;94.91;100758.50;5013636;28;20053;-80
2022/04/11 08:40:52;;;;;;;6.55;3.92;;;8.80;95.20;;;9.01;95.37;100743.59;5013213;28;20078;-79
2022/04/11 08:43:25;;;;;;;6.43;3.67;;;9.30;95.50;;;9.22;96.58;100758.25;4995799;28;20523;-81
2022/04/11 08:45:53;;;;;;;6.65;3.92;;;9.10;95.50;;;9.28;96.93;100750.28;4996828;28;20046;-78
2022/04/11 08:48:24;;;;;;;7.10;4.22;;;9.10;95.40;;;9.39;94.56;100751.91;5012427;28;20046;-80
2022/04/11 08:50:52;;;;;;;6.30;3.53;;;9.20;95.30;;;9.38;92.05;100743.16;5011608;28;20589;-79
2022/04/11 08:53:21;;;;;;;4.72;3.42;;;9.30;95.00;;;9.53;91.26;100746.50;5011728;28;20053;-79
2022/04/11 08:55:50;;;;;;;6.05;3.58;;;9.30;94.90;;;9.54;91.49;100728.06;4994290;28;20056;-78
2022/04/11 08:58:18;;;;;;;4.88;4.05;;;9.40;94.90;;;9.67;94.18;100731.38;4979219;28;20050;-80
2022/04/11 09:00:45;;;;;;;11.38;3.83;;;11.30;95.70;;;9.80;93.36;100718.94;4994960;28;20061;-80
2022/04/11 09:03:12;;;;;;;9.52;3.83;;;9.50;95.30;;;9.91;88.63;100724.91;4995643;28;20042;-81
2022/04/11 09:05:39;;;;;;;5.50;3.90;;;9.70;95.00;;;10.01;85.70;100714.22;4995674;28;20056;-81
2022/04/11 09:08:07;;;;;;;7.15;5.38;;;10.70;94.60;;;10.17;83.17;100714.84;4996208;28;20050;-81
2022/04/11 09:10:37;;;;;;;5.03;3.45;;;10.00;94.20;;;10.30;84.45;100708.50;5014377;28;20061;-79
2022/04/11 09:13:08;;;;;;;5.93;4.18;;;10.10;94.30;;;10.38;84.00;100710.13;5015379;28;20041;-81
2022/04/11 09:15:45;;;;;;;8.75;4.25;;;10.20;94.20;;;10.48;83.23;100704.69;4994188;28;20498;-79
2022/04/11 09:18:12;;;;;;;4.22;3.60;;;10.20;94.00;;;10.59;82.06;100698.38;5000489;28;20042;-78
2022/04/11 09:20:43;;;;;;;6.97;3.30;;;10.40;93.90;;;10.72;81.07;100706.88;4992137;28;20058;-80
2022/04/11 09:23:21;;;;;;;4.25;3.30;;;10.50;93.90;;;10.86;78.56;100696.09;4980190;28;20060;-80
2022/04/11 09:25:49;;;;;;;4.75;3.40;;;10.60;93.50;;;10.92;75.73;100691.56;5011533;28;20042;-80
2022/04/11 09:28:17;;;;;;;6.35;3.97;;;10.70;93.20;;;10.97;77.11;100694.09;5009420;28;20038;-79
2022/04/11 09:30:46;;;;;;;6.32;3.65;;;10.80;93.20;;;11.13;72.86;100696.41;5009539;28;20666;-80
2022/04/11 09:33:14;;;;;;;5.40;3.72;;;10.90;92.70;;;11.13;72.05;100685.88;5011583;28;20120;-80
2022/04/11 09:35:47;;;;;;;6.18;3.65;;;11.00;92.60;;;11.21;68.66;100691.88;5009794;28;20046;-81
2022/04/11 09:38:16;;;;;;;6.75;3.15;;;11.10;92.00;;;11.32;70.44;100684.59;5011404;28;20046;-82
2022/04/11 09:41:01;;;;;;;6.43;3.22;;;11.10;92.20;;;11.33;68.68;100670.53;4995031;28;20072;-81
2022/04/11 09:43:34;;;;;;;7.95;4.50;;;11.30;92.00;;;11.43;68.59;100675.56;5007607;28;20072;-79
2022/04/11 09:46:03;;;;;;;5.43;3.17;;;11.40;91.80;;;11.54;64.31;100676.22;5009526;28;20042;-79
2022/04/11 09:48:35;;;;;;;4.15;2.95;;;11.40;91.40;;;11.70;65.69;100678.47;5006186;28;20100;-79
2022/04/11 09:51:10;;;;;;;5.53;3.20;;;10.80;90.90;;;11.92;61.11;100676.19;4974217;28;20053;-79
2022/04/11 09:53:38;;;;;;;3.97;2.70;;;11.90;90.60;;;11.99;59.44;100675.13;4984028;28;20526;-79
2022/04/11 09:56:10;;;;;;;3.55;3.03;;;11.80;89.80;;;12.09;58.00;100673.16;5009524;28;20049;-79
2022/04/11 09:58:41;;;;;;;4.30;3.05;;;11.90;89.00;;;12.18;56.17;100670.28;5010422;28;20088;-78
2022/04/11 10:01:09;;;;;;;3.88;2.67;;;12.60;87.90;;;12.24;54.97;100666.63;5009970;28;20053;-79
2022/04/11 10:03:38;;;;;;;4.10;2.85;;;12.20;86.10;;;12.31;55.05;100660.28;4992173;28;20049;-78
2022/04/11 10:06:06;;;;;;;4.93;3.08;;;12.20;86.20;;;12.38;54.89;100660.97;5011662;28;20760;-78
2022/04/11 10:08:35;;;;;;;5.20;3.20;;;12.30;85.30;;;12.54;54.87;100668.47;5011192;28;20038;-79
2022/04/11 10:11:04;;;;;;;3.83;2.20;;;12.40;85.40;;;12.62;53.15;100669.16;5009653;28;20042;-78
2022/04/11 10:13:34;;;;;;;5.50;4.95;;;12.50;83.80;;;12.71;50.10;100654.81;5012682;28;20060;-78
2022/04/11 10:16:02;;;;;;;4.03;3.05;;;12.60;80.70;;;12.78;51.65;100648.44;5010954;28;20740;-79
2022/04/11 10:18:29;;;;;;;4.10;3.70;;;12.70;81.90;;;12.86;52.42;100642.94;4992977;28;20042;-79
2022/04/11 10:21:05;;;;;;;5.03;2.88;;;12.70;82.30;;;13.00;53.58;100640.75;5009168;28;20045;-79
2022/04/11 10:24:06;;;;;;;5.93;4.28;;;12.80;83.10;;;13.12;52.83;100644.81;5008682;28;20073;-79
2022/04/11 10:26:46;;;;;;;4.55;2.78;;;12.90;82.10;;;13.18;51.25;100644.63;5008069;28;20045;-79